WetterOnline ( https://www.wetteronline.de )

Wetter aktuell Naumburg (Saale)

Aktuelles Wetter: Osterfeld (246m)

6-stündlich | Neueste Meldungen
Ortszeit Temperatur Wetter
Di, 20.02. 19:00 8.2° C bewölkt
Di, 20.02. 13:00 7.9° C wolkig
Di, 20.02. 7:00 6.9° C bedeckt
Di, 20.02. 1:00 7.5° C bewölkt
Mo, 19.02. 19:00 8.3° C bewölkt
Mo, 19.02. 13:00 8.5° C bedeckt
Mo, 19.02. 7:00 6.9° C Sprühregen
Mo, 19.02. 1:00 8.9° C bedeckt
Ortszeit Temperatur Wetter
Di, 20.02. 22:10 7.8° C bedeckt
Di, 20.02. 22:00 7.7° C bedeckt
Di, 20.02. 21:50 7.7° C bedeckt
Di, 20.02. 21:40 7.7° C bedeckt
Di, 20.02. 21:30 7.7° C bedeckt
Di, 20.02. 21:20 7.7° C bedeckt
Di, 20.02. 21:00 7.7° C bedeckt
Di, 20.02. 20:30 7.8° C bedeckt
Di, 20.02. 20:00 7.7° C bewölkt
Di, 20.02. 19:30 8.0° C bewölkt
Ortszeit Relative Feuchte Sichtweite
Di, 20.02. 19:00 72% 35 km
Di, 20.02. 13:00 70% 30 km
Di, 20.02. 7:00 86% 60 km
Di, 20.02. 1:00 90% 45 km
Mo, 19.02. 19:00 84% >70 km
Mo, 19.02. 13:00 81% >70 km
Mo, 19.02. 7:00 95% 28 km
Mo, 19.02. 1:00 83% >70 km
Ortszeit Relative Feuchte Sichtweite
Di, 20.02. 22:10 75% -
Di, 20.02. 22:00 76% 35 km
Di, 20.02. 21:50 76% -
Di, 20.02. 21:40 76% -
Di, 20.02. 21:30 76% 30 km
Di, 20.02. 21:20 76% -
Di, 20.02. 21:00 75% 35 km
Di, 20.02. 20:30 74% 35 km
Di, 20.02. 20:00 77% 30 km
Di, 20.02. 19:30 74% 30 km
Ortszeit Niederschlagsmenge Niederschlagsart
Di, 20.02. 19:00 0.1 l/m2 in 12 Std. Regen
Di, 20.02. 13:00 0.1 l/m2 in 6 Std. Regen
Di, 20.02. 7:00 0.4 l/m2 in 12 Std. Regen
Di, 20.02. 1:00 0.3 l/m2 in 6 Std. Regen
Mo, 19.02. 19:00 0.1 l/m2 in 12 Std. Regen
Mo, 19.02. 13:00 0.1 l/m2 in 6 Std. Regen
Mo, 19.02. 7:00 3 l/m2 in 12 Std. Regen
Mo, 19.02. 1:00 2 l/m2 in 6 Std. Regen
Ortszeit Niederschlagsmenge Niederschlagsart
Di, 20.02. 22:10 keine Meldung -
Di, 20.02. 22:00 0.0 l/m2 in 1 Std. -
Di, 20.02. 21:50 keine Meldung -
Di, 20.02. 21:40 keine Meldung -
Di, 20.02. 21:30 0.0 l/m2 in 30 Min -
Di, 20.02. 21:20 keine Meldung -
Di, 20.02. 21:00 0.0 l/m2 in 1 Std. -
Di, 20.02. 20:30 0.0 l/m2 in 30 Min -
Di, 20.02. 20:00 0.0 l/m2 in 1 Std. -
Di, 20.02. 19:30 0.0 l/m2 in 30 Min -
Ortszeit Stärke Spitze Richtung
km/h Bft. km/h Grad Sektor
Di, 20.02. 19:00 11 2 39 260° W
Di, 20.02. 13:00 20 4 41 280° W
Di, 20.02. 7:00 14 3 29 290° W
Di, 20.02. 1:00 11 2 25 250° W
Mo, 19.02. 19:00 11 2 50 260° W
Mo, 19.02. 13:00 20 4 57 270° W
Mo, 19.02. 7:00 22 4 52 280° W
Mo, 19.02. 1:00 22 4 43 230° SW
Ortszeit Stärke Spitze Richtung
km/h Bft. km/h Grad Sektor
Di, 20.02. 22:10 11 2 - 240° SW
Di, 20.02. 22:00 9 2 19 240° SW
Di, 20.02. 21:50 9 2 - 240° SW
Di, 20.02. 21:40 7 2 - 250° W
Di, 20.02. 21:30 11 2 18 250° W
Di, 20.02. 21:20 11 2 - 250° W
Di, 20.02. 21:00 9 2 22 250° W
Di, 20.02. 20:30 11 2 22 240° SW
Di, 20.02. 20:00 9 2 22 230° SW
Di, 20.02. 19:30 7 2 22 250° W
Ortszeit Untergrenze Bedeckung Gattung
total tief tief mittel hoch
Di, 20.02. 19:00 1800 m 7/8 7/8 - - -
Di, 20.02. 13:00 690 m 8/8 3/8 - - -
Di, 20.02. 7:00 570 m 8/8 8/8 - - -
Di, 20.02. 1:00 1110 m 7/8 7/8 - - -
Mo, 19.02. 19:00 840 m 8/8 7/8 - - -
Mo, 19.02. 13:00 480 m 8/8 8/8 - - -
Mo, 19.02. 7:00 240 m 8/8 8/8 - - -
Mo, 19.02. 1:00 780 m 8/8 8/8 - - -
Ortszeit Bedeckungsgrad in Achtel und Wolkenuntergrenze
Di, 20.02. 22:10 8
Di, 20.02. 22:00 8(1800m)
Di, 20.02. 21:50 8(1800m)
Di, 20.02. 21:40 8
Di, 20.02. 21:30 8(1800m)
Di, 20.02. 21:20 8(1800m)
Di, 20.02. 21:00 8(1800m)
Di, 20.02. 20:30 8(1800m) 8(3300m)
Di, 20.02. 20:00 5(1800m) 8(3900m) 8(4800m)
Di, 20.02. 19:30 5(2100m) 7(2400m) 8(3900m)
Ortszeit Luftdruck NN (hPa) Tendenz (hPa in 3 Std.)
Di, 20.02. 19:00 1026 + 0,1
Di, 20.02. 13:00 1027 + 0,1
Di, 20.02. 7:00 1025 + 1,7
Di, 20.02. 1:00 1023 - 0,5
Mo, 19.02. 19:00 1024 0,0
Mo, 19.02. 13:00 1024 + 0,6
Mo, 19.02. 7:00 1021 + 1,7
Mo, 19.02. 1:00 1019 - 1,9
Ortszeit Luftdruck NN (hPa) Tendenz (hPa in 3 Std.)
Di, 20.02. 22:10 1025 keine Meldung
Di, 20.02. 22:00 1025 - 0,6
Di, 20.02. 21:50 1025 keine Meldung
Di, 20.02. 21:40 1026 keine Meldung
Di, 20.02. 21:30 1026 - 0,3
Di, 20.02. 21:20 1026 keine Meldung
Di, 20.02. 21:00 1026 - 0,2
Di, 20.02. 20:30 1026 + 0,1
Di, 20.02. 20:00 1026 0,0
Di, 20.02. 19:30 1026 + 0,2
Ortszeit Schneehöhe (cm)
Di, 20.02. 19:00 0
Di, 20.02. 13:00 0
Di, 20.02. 7:00 0
Di, 20.02. 1:00 0
Mo, 19.02. 19:00 0
Mo, 19.02. 13:00 0
Mo, 19.02. 7:00 0
Mo, 19.02. 1:00 0
Ortszeit Schneehöhe (cm)
Di, 20.02. 22:10 -
Di, 20.02. 22:00 0
Di, 20.02. 21:50 0
Di, 20.02. 21:40 -
Di, 20.02. 21:30 0
Di, 20.02. 21:20 0
Di, 20.02. 21:00 0
Di, 20.02. 20:30 0
Di, 20.02. 20:00 0
Di, 20.02. 19:30 0
Link zu dieser Seite / Seite empfehlen

Das Wetter in ...